Sunbury, North Carolina
Current Conditions -  °F | °C
As of 9:15 AM on Thursday 23 Oct 2014 (Local Time) from KCPK Reporting Station
Overcast Overcast  
Wind Chill: 55°   Ceiling: 4400
Heat Index: 55°   Visibility: 10mi
Dew Point: 46°   Wind: 12mph
Humidity: 72%   Direction: 280°W
Pressure: 29.93"   Gusts: 20mph
Location:  36.44°N, 76.61°W
Report Text: KCPK 231315Z AUTO 28010G17KT 10SM OVC044 13/08 A2993 RMK AO2
Loading
Personal Weather Stations






























Interactive Weather Map
Tropical Storm Tracking
New forecast layout! Learn more

10-Day Weather Forecast

Advertisements
Track Severe Weather on mobile